Time;durP1;ratioP1;P1;durP2;ratioP2;P2;SDS_P1;SDS_P2;PMS_P1;PMS_P2;Temp;Humidity;BMP_temperature;BMP_pressure;BME280_temperature;BME280_humidity;BME280_pressure;Samples;Min_cycle;Max_cycle;Signal;HPM_P1;HPM_P2
2023/10/13 00:00:25;;;;;;;40.65;2.72;;;;;;;23.37;57.11;99337.13;7317894;19;133129;-73
2023/10/13 00:02:52;;;;;;;42.58;2.65;;;;;;;23.38;56.86;99333.53;7316673;19;128978;-74
2023/10/13 00:05:18;;;;;;;48.20;3.47;;;;;;;23.18;54.59;99327.69;7316259;19;129614;-75
2023/10/13 00:07:43;;;;;;;50.73;3.07;;;;;;;23.26;53.50;99326.88;7316783;19;129337;-75
2023/10/13 00:10:09;;;;;;;78.53;4.50;;;;;;;23.26;53.16;99329.50;7317284;19;129442;-73
2023/10/13 00:12:37;;;;;;;10.90;1.25;;;;;;;23.36;54.36;99326.78;7315578;19;129267;-73
2023/10/13 00:15:04;;;;;;;66.20;4.18;;;;;;;23.34;54.99;99332.19;7314460;19;129893;-75
2023/10/13 00:17:32;;;;;;;;;;;;;;;23.38;57.71;99332.69;7314897;19;132588;-74
2023/10/13 00:22:25;;;;;;;42.92;3.38;;;;;;;23.41;55.98;99333.22;7314791;19;129554;-40
2023/10/13 00:24:58;;;;;;;34.90;2.60;;;;;;;23.42;55.79;99328.81;7311929;19;129321;-37
2023/10/13 00:27:29;;;;;;;50.10;3.95;;;;;;;23.41;55.96;99338.47;7311690;19;130738;-40
2023/10/13 00:32:46;;;;;;;66.82;4.35;;;;;;;23.40;56.50;99325.50;7314259;19;128828;-35
2023/10/13 00:35:24;;;;;;;109.90;7.60;;;;;;;23.41;56.50;99333.22;7309365;19;128894;-38
2023/10/13 00:37:53;;;;;;;49.42;3.65;;;;;;;23.39;56.19;99324.66;7311167;19;130223;-39
2023/10/13 00:40:53;;;;;;;129.05;8.45;;;;;;;23.31;56.21;99316.78;7308216;19;131492;-39
2023/10/13 00:45:57;;;;;;;42.92;3.15;;;;;;;23.41;58.02;99333.22;7307087;19;129508;-39
2023/10/13 00:48:33;;;;;;;56.58;4.07;;;;;;;23.42;56.35;99334.84;7311829;19;130503;-39
2023/10/13 00:51:08;;;;;;;47.15;3.50;;;;;;;23.30;56.90;99312.50;7310350;19;129245;-38
2023/10/13 00:53:37;;;;;;;75.30;4.82;;;;;;;23.19;54.02;99333.72;7312965;19;128900;-38
2023/10/13 00:56:18;;;;;;;77.20;5.75;;;;;;;23.11;53.24;99315.31;7308341;19;130022;-39
2023/10/13 00:58:43;;;;;;;44.10;3.00;;;;;;;23.39;54.02;99334.38;7314367;19;130947;-37
2023/10/13 01:01:17;;;;;;;50.23;3.87;;;;;;;23.34;54.77;99337.44;7310675;19;129247;-40
2023/10/13 01:03:50;;;;;;;61.13;4.65;;;;;;;23.35;56.07;99338.28;7312809;19;128955;-40
2023/10/13 01:06:19;;;;;;;153.70;10.40;;;;;;;23.36;56.29;99338.09;7305134;19;129655;-38
2023/10/13 01:08:51;;;;;;;51.03;3.40;;;;;;;23.39;56.09;99337.00;7310706;19;130532;-37
2023/10/13 01:11:18;;;;;;;139.02;9.38;;;;;;;23.39;56.39;99329.13;7307947;19;129342;-39
2023/10/13 01:13:44;;;;;;;51.85;4.25;;;;;;;23.41;56.36;99338.47;7310004;19;129604;-38
2023/10/13 01:16:10;;;;;;;43.10;3.33;;;;;;;23.32;56.38;99321.03;7308620;19;129554;-39
2023/10/13 01:18:47;;;;;;;55.95;3.85;;;;;;;23.41;56.01;99333.22;7310491;19;129347;-38
2023/10/13 01:21:16;;;;;;;36.13;2.63;;;;;;;23.43;56.27;99326.00;7310549;19;130286;-39
2023/10/13 01:23:44;;;;;;;56.00;4.53;;;;;;;23.44;56.24;99332.91;7311694;19;129632;-38
2023/10/13 01:26:12;;;;;;;40.80;3.13;;;;;;;23.42;56.44;99340.09;7306057;19;129962;-39
2023/10/13 01:28:44;;;;;;;70.25;4.50;;;;;;;23.41;56.55;99332.38;7310619;19;129676;-38
2023/10/13 01:31:13;;;;;;;24.75;2.03;;;;;;;23.39;56.76;99335.16;7311766;19;131196;-35
2023/10/13 01:33:38;;;;;;;60.75;4.63;;;;;;;23.40;56.70;99336.84;7311515;19;128725;-37
2023/10/13 01:36:07;;;;;;;52.87;3.73;;;;;;;23.41;56.57;99333.22;7306970;19;131277;-40
2023/10/13 01:38:33;;;;;;;40.72;3.08;;;;;;;23.28;54.41;99334.63;7310249;19;131018;-40
2023/10/13 01:40:59;;;;;;;64.73;4.10;;;;;;;23.13;54.01;99313.38;7310697;19;130190;-38
2023/10/13 01:43:25;;;;;;;44.27;3.33;;;;;;;23.31;53.01;99336.94;7312639;19;128995;-38
2023/10/13 01:45:50;;;;;;;26.73;2.07;;;;;;;23.37;54.25;99342.38;7308017;19;129274;-38
2023/10/13 01:48:18;;;;;;;46.53;3.37;;;;;;;23.35;54.93;99339.09;7309158;19;129545;-38
2023/10/13 01:50:47;;;;;;;54.78;4.00;;;;;;;23.38;55.30;99344.03;7311415;19;130443;-38
2023/10/13 01:53:17;;;;;;;37.30;2.83;;;;;;;23.40;55.80;99346.50;7312694;19;128978;-39
2023/10/13 01:55:43;;;;;;;25.38;2.20;;;;;;;23.42;55.86;99340.09;7308914;19;129245;-35
2023/10/13 01:58:18;;;;;;;33.77;2.53;;;;;;;23.40;57.10;99336.00;7310858;19;129745;-37
2023/10/13 02:00:47;;;;;;;57.33;3.97;;;;;;;23.44;56.26;99351.25;7310955;19;130454;-40
2023/10/13 02:03:16;;;;;;;45.20;3.30;;;;;;;23.33;56.07;99325.31;7311072;19;129129;-34
2023/10/13 02:05:49;;;;;;;35.17;2.92;;;;;;;23.42;56.62;99334.84;7308602;19;129621;-40
2023/10/13 02:08:27;;;;;;;18.75;1.55;;;;;;;23.45;56.11;99329.31;7311374;19;129190;-40
2023/10/13 02:10:56;;;;;;;18.10;1.67;;;;;;;23.43;56.83;99327.81;7309561;19;130326;-38
2023/10/13 02:13:24;;;;;;;48.15;3.53;;;;;;;23.43;56.46;99330.44;7311249;19;129103;-39
2023/10/13 02:15:56;;;;;;;59.53;4.10;;;;;;;23.42;57.26;99329.59;7309154;19;129479;-38
2023/10/13 02:18:43;;;;;;;42.65;3.30;;;;;;;23.43;56.64;99325.19;7311081;19;129443;-39
2023/10/13 02:21:14;;;;;;;38.40;2.92;;;;;;;23.43;56.95;99336.50;7310177;19;129723;-40
2023/10/13 02:23:59;;;;;;;39.22;3.15;;;;;;;23.42;56.69;99339.28;7309197;19;129149;-38
2023/10/13 02:26:31;;;;;;;52.70;3.60;;;;;;;23.18;53.45;99326.84;7307125;19;129272;-40
2023/10/13 02:29:04;;;;;;;29.23;2.33;;;;;;;23.27;52.77;99325.91;7311098;19;129317;-40
2023/10/13 02:31:30;;;;;;;88.35;5.57;;;;;;;23.37;53.95;99325.81;7308257;19;130007;-39
2023/10/13 02:33:55;;;;;;;39.53;2.70;;;;;;;23.36;54.63;99319.75;7309155;19;129563;-37
2023/10/13 02:36:23;;;;;;;45.27;3.50;;;;;;;23.37;55.37;99321.38;7300240;19;129543;-39
2023/10/13 02:38:50;;;;;;;29.92;2.28;;;;;;;23.42;55.81;99323.56;7309301;19;130103;-39
2023/10/13 02:41:26;;;;;;;44.90;3.47;;;;;;;23.42;56.68;99313.84;7305712;19;129528;-38
2023/10/13 02:43:53;;;;;;;62.45;4.18;;;;;;;23.42;56.18;99313.84;7309625;19;129231;-39
2023/10/13 02:46:22;;;;;;;20.65;1.77;;;;;;;23.42;56.44;99313.06;7308330;19;128823;-39
2023/10/13 02:48:53;;;;;;;43.60;3.20;;;;;;;23.42;56.85;99316.47;7316110;19;130169;-40
2023/10/13 02:51:36;;;;;;;12.57;1.33;;;;;;;23.44;57.06;99311.91;7316422;19;129120;-40
2023/10/13 02:54:03;;;;;;;32.95;2.55;;;;;;;23.45;55.97;99308.31;7315961;19;129174;-36
2023/10/13 02:56:29;;;;;;;69.63;4.68;;;;;;;23.40;56.27;99297.47;7312096;19;129008;-38
2023/10/13 02:59:04;;;;;;;34.33;2.53;;;;;;;23.44;56.20;99303.19;7317436;19;129069;-37
2023/10/13 03:01:33;;;;;;;44.45;3.30;;;;;;;23.43;56.76;99305.03;7314616;19;131716;-40
2023/10/13 03:04:00;;;;;;;26.98;2.50;;;;;;;23.43;56.29;99305.03;7315150;19;128804;-38
2023/10/13 03:06:34;;;;;;;68.88;4.53;;;;;;;23.40;56.36;99302.72;7312400;19;130459;-38
2023/10/13 03:09:14;;;;;;;74.18;4.70;;;;;;;23.43;56.72;99294.53;7315860;19;130228;-38
2023/10/13 03:11:48;;;;;;;58.70;3.90;;;;;;;23.29;57.62;99261.00;7315475;19;129833;-38
2023/10/13 03:14:32;;;;;;;27.15;2.17;;;;;;;23.24;54.06;99294.72;7317701;19;131425;-39
2023/10/13 03:17:05;;;;;;;19.35;1.67;;;;;;;23.34;54.09;99284.97;7318605;19;129200;-39
2023/10/13 03:19:34;;;;;;;36.67;2.65;;;;;;;23.41;53.83;99293.88;7313749;19;130262;-38
2023/10/13 03:22:09;;;;;;;37.65;2.85;;;;;;;23.24;55.42;99273.75;7315076;19;129423;-39
2023/10/13 03:24:34;;;;;;;52.85;3.95;;;;;;;23.40;55.52;99305.34;7314344;19;130282;-37
2023/10/13 03:27:09;;;;;;;37.10;2.73;;;;;;;23.40;56.50;99300.09;7314013;19;129241;-37
2023/10/13 03:29:48;;;;;;;55.13;3.83;;;;;;;23.42;56.01;99287.63;7314810;19;129404;-37
2023/10/13 03:32:15;;;;;;;22.33;1.95;;;;;;;23.44;55.62;99280.41;7316922;19;129994;-37
2023/10/13 03:37:37;;;;;;;11.48;1.25;;;;;;;23.44;56.06;99254.19;7315800;19;129643;-38
2023/10/13 03:42:57;;;;;;;38.53;2.83;;;;;;;23.45;56.08;99261.09;7313924;19;129353;-39
2023/10/13 03:45:24;;;;;;;63.38;4.18;;;;;;;23.43;56.11;99262.22;7312064;19;129420;-39
2023/10/13 03:47:51;;;;;;;38.55;2.67;;;;;;;23.44;56.42;99256.81;7314288;19;129819;-38
2023/10/13 03:50:29;;;;;;;21.38;1.83;;;;;;;23.43;56.15;99247.31;7315898;19;130325;-40
2023/10/13 03:52:57;;;;;;;28.90;2.35;;;;;;;23.34;56.18;99239.56;7312309;19;130647;-39
2023/10/13 03:55:26;;;;;;;43.60;3.03;;;;;;;23.44;56.57;99255.97;7311998;19;129254;-40
2023/10/13 03:57:52;;;;;;;58.83;3.75;;;;;;;23.42;56.72;99253.50;7313264;19;129298;-40
2023/10/13 04:00:25;;;;;;;28.73;2.00;;;;;;;23.21;54.22;99253.09;7316074;19;129492;-37
2023/10/13 04:03:08;;;;;;;32.92;2.58;;;;;;;23.33;53.90;99241.38;7314101;19;129399;-37
2023/10/13 04:05:44;;;;;;;51.95;3.60;;;;;;;23.39;53.40;99240.72;7310927;19;129353;-39
2023/10/13 04:29:51;;;;;;;52.75;3.85;;;;;;;23.45;56.13;99240.09;7313063;19;129674;-40
2023/10/13 04:32:32;;;;;;;39.58;2.85;;;;;;;23.46;56.39;99240.91;7310237;19;132441;-39
2023/10/13 04:35:09;;;;;;;36.97;2.78;;;;;;;23.46;56.24;99226.00;7312211;19;129686;-38
2023/10/13 04:40:34;;;;;;;25.23;2.00;;;;;;;23.46;56.22;99225.16;7314668;19;129057;-38
2023/10/13 04:43:32;;;;;;;30.25;2.38;;;;;;;23.45;56.19;99224.34;7308185;19;130793;-39
2023/10/13 04:45:55;;;;;;;37.20;2.50;;;;;;;23.40;55.38;99212.69;7310798;19;130207;-40
2023/10/13 04:50:58;;;;;;;40.22;2.60;;;;;;;23.37;53.63;99216.44;7312715;19;129059;-38
2023/10/13 04:53:59;;;;;;;36.78;2.67;;;;;;;23.26;53.71;99198.34;7310118;19;130163;-39
2023/10/13 04:56:59;;;;;;;68.25;4.20;;;;;;;23.41;55.30;99222.19;7310310;19;131000;-37
2023/10/13 04:59:17;;;;;;;72.88;4.50;;;;;;;23.42;55.66;99219.41;7309211;19;131300;-40
2023/10/13 05:04:38;;;;;;;43.38;3.13;;;;;;;23.43;56.09;99210.56;7306646;19;130262;-39
2023/10/13 05:48:19;;;;;;;56.45;3.40;;;;;;;23.29;55.67;99224.28;7310683;19;129327;-38
2023/10/13 05:50:57;;;;;;;63.80;4.47;;;;;;;23.37;55.99;99232.19;7309752;19;129624;-38
2023/10/13 06:28:53;;;;;;;43.22;2.92;;;;;;;23.39;54.24;99253.84;7307390;19;129454;-40
2023/10/13 06:31:21;;;;;;;60.83;3.63;;;;;;;23.43;55.34;99265.66;7307745;19;129556;-36
2023/10/13 06:33:47;;;;;;;89.78;6.57;;;;;;;23.42;55.50;99258.75;7303600;19;130196;-37
2023/10/13 06:36:13;;;;;;;8.27;1.05;;;;;;;23.46;55.97;99254.84;7304257;19;129158;-37
2023/10/13 06:38:38;;;;;;;63.37;4.53;;;;;;;23.46;55.81;99252.22;7307460;19;129971;-39
2023/10/13 06:41:07;;;;;;;97.83;6.40;;;;;;;23.50;56.12;99244.88;7300422;19;130077;-40
2023/10/13 06:43:40;;;;;;;37.25;2.67;;;;;;;23.45;57.03;99234.03;7306263;19;130366;-34
2023/10/13 06:46:07;;;;;;;24.98;1.85;;;;;;;23.47;56.58;99246.00;7309324;19;129509;-38
2023/10/13 06:48:34;;;;;;;36.13;2.65;;;;;;;23.47;56.17;99246.00;7306218;19;129639;-34
2023/10/13 06:51:17;;;;;;;88.65;5.28;;;;;;;23.48;56.42;99250.28;7304148;19;131140;-38
2023/10/13 06:53:46;;;;;;;105.18;7.10;;;;;;;23.48;55.89;99239.78;7301687;19;130491;-39
2023/10/13 06:56:16;;;;;;;33.28;2.28;;;;;;;23.46;55.87;99246.97;7305880;19;130268;-38
2023/10/13 06:58:46;;;;;;;70.82;4.95;;;;;;;23.46;56.42;99241.72;7305859;19;129100;-37
2023/10/13 07:01:17;;;;;;;29.58;2.05;;;;;;;23.47;56.43;99246.00;7309104;19;129791;-39
2023/10/13 07:03:43;;;;;;;92.10;6.43;;;;;;;23.34;56.30;99232.50;7299987;19;131509;-38
2023/10/13 07:06:17;;;;;;;41.90;2.90;;;;;;;23.31;54.24;99248.56;7307336;19;129303;-37
2023/10/13 07:08:51;;;;;;;68.82;4.75;;;;;;;23.34;53.71;99253.50;7305079;19;129536;-39
2023/10/13 07:11:32;;;;;;;23.20;1.75;;;;;;;23.47;53.12;99243.38;7309681;19;129334;-38
2023/10/13 07:13:59;;;;;;;45.03;2.97;;;;;;;23.41;54.36;99246.63;7303185;19;129524;-36
2023/10/13 07:16:24;;;;;;;13.38;1.35;;;;;;;23.43;54.69;99242.06;7305793;19;129566;-38
2023/10/13 07:18:49;;;;;;;90.07;5.70;;;;;;;23.44;55.06;99238.44;7302049;19;131385;-40
2023/10/13 07:21:16;;;;;;;27.10;2.00;;;;;;;23.45;55.52;99236.66;7304764;19;129320;-39
2023/10/13 07:23:49;;;;;;;90.95;6.40;;;;;;;23.47;55.53;99247.81;7301779;19;129947;-40
2023/10/13 07:26:15;;;;;;;54.00;3.50;;;;;;;23.45;56.14;99234.03;7303084;19;129323;-39
2023/10/13 07:28:46;;;;;;;85.77;5.73;;;;;;;23.47;56.02;99240.75;7306940;19;129081;-39
2023/10/13 07:31:13;;;;;;;41.28;2.70;;;;;;;23.38;56.39;99220.72;7308452;19;129373;-39
2023/10/13 07:33:41;;;;;;;48.58;3.50;;;;;;;23.46;55.87;99231.25;7313425;19;130104;-40
2023/10/13 07:36:15;;;;;;;25.55;1.88;;;;;;;23.36;55.92;99214.81;7312055;19;129552;-38
2023/10/13 07:38:48;;;;;;;65.57;4.40;;;;;;;23.46;56.56;99239.09;7312783;19;129027;-38
2023/10/13 07:41:15;;;;;;;63.22;4.00;;;;;;;23.46;56.55;99236.47;7314050;19;131562;-37
2023/10/13 07:43:42;;;;;;;75.03;5.35;;;;;;;23.45;56.83;99234.84;7313210;19;131278;-37
2023/10/13 07:46:12;;;;;;;42.80;2.85;;;;;;;23.44;56.30;99230.56;7314143;19;129026;-40
2023/10/13 07:48:40;;;;;;;35.05;2.53;;;;;;;23.35;56.55;99207.94;7313191;19;129395;-38
2023/10/13 07:51:22;;;;;;;53.67;3.25;;;;;;;23.30;54.88;99215.47;7314270;19;130587;-39
2023/10/13 07:53:49;;;;;;;100.03;6.75;;;;;;;23.26;53.25;99214.09;7312892;19;129473;-39
2023/10/13 07:56:18;;;;;;;39.65;2.53;;;;;;;23.33;52.69;99211.69;7310943;19;129533;-40
2023/10/13 07:59:00;;;;;;;72.63;4.30;;;;;;;23.40;54.32;99202.19;7312446;19;129569;-39
2023/10/13 08:01:26;;;;;;;35.55;2.25;;;;;;;23.41;55.45;99207.28;7313656;19;130822;-38
2023/10/13 08:06:36;;;;;;;32.03;1.98;;;;;;;23.33;55.98;99174.97;7313974;19;129305;-40
2023/10/13 08:09:09;;;;;;;141.40;7.87;;;;;;;23.45;55.73;99190.25;7311250;19;133155;-39
2023/10/13 08:11:35;;;;;;;27.20;1.92;;;;;;;23.42;56.01;99187.13;7311600;19;130049;-34
2023/10/13 08:14:11;;;;;;;32.90;2.05;;;;;;;23.47;55.98;99196.13;7311763;19;129389;-38
2023/10/13 08:17:26;;;;;;;55.78;3.33;;;;;;;23.47;56.86;99190.88;7311544;19;128997;-38
2023/10/13 08:19:39;;;;;;;50.75;3.15;;;;;;;23.48;56.00;99191.72;7307519;19;129847;-39
2023/10/13 08:42:52;;;;;;;53.30;3.03;;;;;;;23.43;52.57;99179.09;7315491;19;128992;-40
2023/10/13 08:56:07;;;;;;;64.40;3.60;;;;;;;23.43;56.30;99165.97;7308702;19;130189;-39
2023/10/13 08:59:21;;;;;;;55.83;3.25;;;;;;;23.44;56.56;99175.47;7312604;19;129773;-38
2023/10/13 09:04:32;;;;;;;63.70;3.83;;;;;;;23.47;56.33;99159.41;7311640;19;129191;-39
2023/10/13 09:09:34;;;;;;;145.52;8.65;;;;;;;23.47;56.10;99158.59;7309461;19;129024;-38
2023/10/13 09:12:09;;;;;;;77.95;4.28;;;;;;;23.47;56.53;99163.84;7311391;19;130909;-38
2023/10/13 09:14:43;;;;;;;55.70;3.22;;;;;;;23.45;57.27;99156.16;7311328;19;130686;-38
2023/10/13 09:17:54;;;;;;;49.70;3.08;;;;;;;23.44;55.99;99162.34;7312542;19;129893;-37
2023/10/13 09:19:57;;;;;;;37.30;2.25;;;;;;;23.45;56.37;99150.91;7310751;19;129420;-39
2023/10/13 09:22:35;;;;;;;41.95;2.53;;;;;;;23.45;58.17;99150.91;7311516;19;129630;-39
2023/10/13 09:25:02;;;;;;;29.98;2.38;;;;;;;23.36;53.81;99153.66;7309299;19;131042;-39
2023/10/13 09:27:31;;;;;;;56.85;3.17;;;;;;;23.40;53.09;99157.59;7308756;19;130450;-39
2023/10/13 09:30:18;;;;;;;89.93;4.80;;;;;;;23.42;53.68;99151.19;7310852;19;129428;-39
2023/10/13 09:32:48;;;;;;;50.75;3.00;;;;;;;23.41;55.08;99144.31;7310421;19;129072;-37
2023/10/13 09:35:18;;;;;;;30.77;2.08;;;;;;;23.43;55.48;99146.78;7310422;19;130373;-38
2023/10/13 09:37:47;;;;;;;17.90;1.25;;;;;;;23.43;55.53;99137.13;7310832;19;131540;-38
2023/10/13 09:40:29;;;;;;;96.80;5.57;;;;;;;23.44;56.48;99148.41;7309902;19;130083;-38
2023/10/13 09:42:59;;;;;;;62.92;3.67;;;;;;;23.44;56.00;99145.78;7310679;19;130215;-40
2023/10/13 09:45:32;;;;;;;182.77;10.10;;;;;;;23.43;56.87;99147.59;7306926;19;129124;-39
2023/10/13 09:48:06;;;;;;;41.03;2.47;;;;;;;23.34;56.85;99132.03;7309045;19;129514;-39
2023/10/13 09:50:37;;;;;;;47.80;2.75;;;;;;;23.47;56.67;99143.66;7312377;19;129313;-39
2023/10/13 09:53:10;;;;;;;44.60;2.95;;;;;;;23.46;56.08;99131.53;7310171;19;129013;-38
2023/10/13 09:55:40;;;;;;;35.25;2.13;;;;;;;23.47;56.07;99143.66;7307361;19;129245;-40
2023/10/13 09:58:13;;;;;;;40.30;2.50;;;;;;;23.46;56.24;99131.53;7311839;19;130506;-40
2023/10/13 10:04:07;;;;;;;98.60;5.70;;;;;;;23.49;56.04;99125.13;7306347;19;129262;-39
2023/10/13 10:06:39;;;;;;;47.95;2.75;;;;;;;23.33;56.49;99102.34;7307796;19;131132;-36
2023/10/13 10:09:12;;;;;;;79.00;4.20;;;;;;;23.45;57.35;99134.31;7310622;19;129580;-37
2023/10/13 10:12:08;;;;;;;23.10;1.58;;;;;;;23.28;53.39;99128.22;7312532;19;129009;-41
2023/10/13 10:14:56;;;;;;;67.60;3.70;;;;;;;23.32;52.96;99132.16;7309024;19;128957;-40
2023/10/13 10:17:23;;;;;;;39.33;2.40;;;;;;;23.45;53.86;99118.59;7308923;19;129338;-37
2023/10/13 10:19:54;;;;;;;36.15;2.53;;;;;;;23.42;56.08;99111.84;7311230;19;129823;-38
2023/10/13 10:22:35;;;;;;;9.05;0.95;;;;;;;23.43;56.09;99113.50;7311232;19;128979;-38
2023/10/13 10:25:02;;;;;;;48.55;3.05;;;;;;;23.46;55.31;99110.53;7308334;19;129141;-37
2023/10/13 10:27:30;;;;;;;51.42;2.88;;;;;;;23.35;55.28;99096.94;7307321;19;129015;-39
2023/10/13 10:29:57;;;;;;;67.28;4.00;;;;;;;23.46;55.78;99112.34;7310868;19;130323;-37
2023/10/13 10:32:33;;;;;;;28.45;1.75;;;;;;;23.46;57.52;99101.84;7310951;19;129147;-40
2023/10/13 10:35:23;;;;;;;65.77;3.93;;;;;;;23.45;57.76;99097.59;7308328;19;129120;-38
2023/10/13 10:37:48;;;;;;;37.08;2.28;;;;;;;23.48;56.35;99102.50;7309165;19;130057;-38
2023/10/13 10:40:46;;;;;;;36.73;2.17;;;;;;;23.48;56.54;99098.09;7310379;19;130455;-38
2023/10/13 10:43:17;;;;;;;22.87;1.57;;;;;;;23.47;56.25;99096.44;7310019;19;129851;-39
2023/10/13 10:45:49;;;;;;;50.13;3.10;;;;;;;23.47;56.90;99095.63;7305581;19;129066;-38
2023/10/13 10:48:21;;;;;;;68.20;3.78;;;;;;;23.48;55.95;99103.34;7309305;19;129873;-37
2023/10/13 10:50:54;;;;;;;46.33;2.78;;;;;;;23.45;57.64;99093.19;7307809;19;130271;-37
2023/10/13 10:53:33;;;;;;;27.42;1.77;;;;;;;23.47;57.10;99093.00;7309526;19;129047;-36
2023/10/13 10:56:05;;;;;;;45.03;2.72;;;;;;;23.29;54.15;99087.91;7307278;19;129548;-39
2023/10/13 10:58:43;;;;;;;23.58;1.60;;;;;;;23.29;53.85;99085.28;7309313;19;129273;-40
2023/10/13 11:01:10;;;;;;;55.03;3.15;;;;;;;23.37;52.96;99085.28;7306781;19;129571;-39
2023/10/13 11:03:37;;;;;;;;;;;;;;;23.47;55.80;99082.50;7309445;19;128941;-38
2023/10/13 11:06:04;;;;;;;44.25;2.70;;;;;;;23.45;55.21;99073.97;7307795;19;129692;-40
2023/10/13 11:08:33;;;;;;;73.50;4.32;;;;;;;23.45;55.40;99074.81;7314759;19;131159;-36
2023/10/13 11:11:05;;;;;;;35.22;2.47;;;;;;;23.43;55.67;99068.06;7315859;19;132406;-39
2023/10/13 11:13:47;;;;;;;61.92;3.33;;;;;;;23.46;57.40;99072.97;7314554;19;128881;-36
2023/10/13 11:16:23;;;;;;;71.53;3.88;;;;;;;23.46;56.93;99063.31;7312413;19;128997;-37
2023/10/13 11:19:11;;;;;;;39.58;2.35;;;;;;;23.47;57.63;99064.94;7315620;19;129647;-35
2023/10/13 11:21:37;;;;;;;72.80;3.70;;;;;;;23.48;56.23;99071.03;7316216;19;129019;-36
2023/10/13 11:24:08;;;;;;;46.57;3.07;;;;;;;23.49;55.71;99056.91;7315463;19;129468;-37
2023/10/13 11:26:35;;;;;;;26.42;1.70;;;;;;;23.47;56.57;99043.16;7313444;19;129365;-35
2023/10/13 11:29:04;;;;;;;59.40;3.58;;;;;;;23.36;56.25;99031.19;7314656;19;130103;-38
2023/10/13 11:31:30;;;;;;;69.97;3.78;;;;;;;23.38;55.92;99025.75;7314991;19;129705;-39
2023/10/13 11:33:56;;;;;;;79.37;4.63;;;;;;;23.45;56.41;99035.44;7314403;19;128992;-37
2023/10/13 11:36:26;;;;;;;42.27;2.33;;;;;;;23.46;56.72;99038.88;7311659;19;129037;-38
2023/10/13 11:38:57;;;;;;;69.18;4.20;;;;;;;23.43;56.97;99036.59;7313672;19;129159;-38
2023/10/13 11:41:23;;;;;;;87.25;4.50;;;;;;;23.43;56.52;99026.94;7314343;19;131096;-38
2023/10/13 11:51:45;;;;;;;46.88;2.55;;;;;;;23.41;54.88;99018.41;7314049;19;129602;-37
2023/10/13 11:54:21;;;;;;;34.55;2.15;;;;;;;23.43;55.44;99016.44;7313886;19;128998;-37
2023/10/13 11:56:48;;;;;;;68.13;3.67;;;;;;;23.40;55.58;99001.03;7313744;19;129142;-37
2023/10/13 11:59:17;;;;;;;38.50;2.20;;;;;;;23.44;56.18;99012.81;7314810;19;129071;-38
2023/10/13 12:07:27;;;;;;;36.85;2.13;;;;;;;23.47;56.15;98996.72;7311704;19;129034;-39
2023/10/13 12:12:28;;;;;;;29.25;1.77;;;;;;;23.47;57.29;98991.47;7313568;19;130050;-39
2023/10/13 12:14:57;;;;;;;57.53;3.10;;;;;;;23.46;56.40;98987.22;7311812;19;129495;-38
2023/10/13 12:17:36;;;;;;;39.75;2.15;;;;;;;23.47;57.52;98983.63;7313368;19;129384;-38
2023/10/13 12:20:09;;;;;;;63.40;3.72;;;;;;;23.38;57.01;98963.63;7314042;19;129614;-34
2023/10/13 12:22:42;;;;;;;44.78;2.80;;;;;;;23.47;55.97;98985.44;7310937;19;130876;-40
2023/10/13 12:25:34;;;;;;;56.97;3.47;;;;;;;23.45;57.20;98974.28;7312079;19;129429;-37
2023/10/13 12:28:12;;;;;;;50.40;3.05;;;;;;;23.45;56.70;98972.50;7312116;19;129446;-40
2023/10/13 12:30:54;;;;;;;50.08;2.70;;;;;;;23.30;54.16;98968.91;7313639;19;131204;-39
2023/10/13 12:33:26;;;;;;;30.20;1.92;;;;;;;23.35;53.20;98974.47;7312899;19;130501;-38
2023/10/13 12:36:03;;;;;;;54.08;3.10;;;;;;;23.42;53.52;98967.56;7310602;19;128937;-39
2023/10/13 12:52:16;;;;;;;73.53;4.22;;;;;;;23.45;55.64;98961.16;7314202;19;129840;-37
2023/10/13 12:54:47;;;;;;;25.02;1.63;;;;;;;23.45;57.02;98956.75;7310706;19;129371;-39
2023/10/13 12:57:16;;;;;;;61.63;3.88;;;;;;;23.46;56.82;98952.31;7312948;19;129301;-36
2023/10/13 12:59:42;;;;;;;47.13;2.70;;;;;;;23.45;56.37;98948.88;7313194;19;129414;-38
2023/10/13 13:02:14;;;;;;;81.30;4.63;;;;;;;23.45;56.24;98941.00;7311374;19;129350;-37
2023/10/13 13:04:43;;;;;;;42.63;2.30;;;;;;;23.45;56.29;98925.25;7311935;19;129999;-38
2023/10/13 13:07:13;;;;;;;33.90;2.17;;;;;;;23.45;56.90;98930.50;7309911;19;130746;-40
2023/10/13 13:09:39;;;;;;;37.90;2.15;;;;;;;23.46;56.56;98916.41;7313686;19;129042;-36
2023/10/13 13:12:06;;;;;;;106.78;5.90;;;;;;;23.46;56.55;98916.41;7307571;19;129622;-38
2023/10/13 13:14:34;;;;;;;58.15;3.30;;;;;;;23.42;56.68;98901.97;7309063;19;130636;-37
2023/10/13 13:17:06;;;;;;;49.42;2.85;;;;;;;23.30;54.13;98905.94;7309709;19;129190;-39
2023/10/13 13:19:36;;;;;;;39.10;2.17;;;;;;;23.36;53.69;98894.78;7311169;19;129862;-37
2023/10/13 13:22:11;;;;;;;88.82;4.90;;;;;;;23.48;53.73;98898.69;7308816;19;131797;-39
2023/10/13 13:24:43;;;;;;;81.25;4.20;;;;;;;23.41;54.14;98892.47;7311489;19;130402;-37
2023/10/13 13:27:17;;;;;;;154.10;9.07;;;;;;;23.44;55.68;98892.13;7307632;19;129783;-39
2023/10/13 13:29:43;;;;;;;23.17;1.48;;;;;;;23.34;55.08;98870.50;7308326;19;130007;-40
2023/10/13 13:32:24;;;;;;;67.25;3.85;;;;;;;23.45;55.84;98882.47;7309562;19;130703;-39
2023/10/13 13:35:15;;;;;;;16.05;1.20;;;;;;;23.44;56.80;98871.13;7307758;19;130402;-38
2023/10/13 13:37:43;;;;;;;59.47;3.42;;;;;;;23.45;55.69;98872.78;7310259;19;129291;-38
2023/10/13 13:40:15;;;;;;;70.05;4.22;;;;;;;23.36;56.31;98846.72;7309191;19;129077;-40
2023/10/13 13:42:45;;;;;;;57.85;3.20;;;;;;;23.46;56.40;98866.53;7310933;19;130907;-38
2023/10/13 13:45:21;;;;;;;58.67;3.72;;;;;;;23.47;56.42;98865.53;7308649;19;129330;-40
2023/10/13 13:47:47;;;;;;;36.10;2.03;;;;;;;23.48;56.47;98872.44;7308586;19;129670;-38
2023/10/13 13:50:17;;;;;;;65.93;4.10;;;;;;;23.45;56.46;98857.06;7310176;19;130428;-37
2023/10/13 13:52:45;;;;;;;51.80;2.95;;;;;;;23.48;55.93;98854.09;7312178;19;131040;-38
2023/10/13 13:55:17;;;;;;;109.28;5.90;;;;;;;23.47;56.87;98849.00;7308985;19;129991;-38
2023/10/13 13:57:43;;;;;;;27.23;1.60;;;;;;;23.48;56.53;98850.63;7311685;19;129186;-38
2023/10/13 14:00:16;;;;;;;50.03;3.08;;;;;;;23.34;56.57;98823.28;7311571;19;129170;-39
2023/10/13 14:02:47;;;;;;;38.38;2.47;;;;;;;23.40;55.68;98842.78;7310722;19;130457;-36
2023/10/13 14:05:15;;;;;;;87.47;4.85;;;;;;;23.25;53.14;98813.81;7308325;19;129405;-39
2023/10/13 14:07:48;;;;;;;82.85;4.25;;;;;;;23.47;52.28;98825.41;7309082;19;128791;-38
2023/10/13 14:10:31;;;;;;;32.40;1.85;;;;;;;23.51;53.16;98819.63;7312031;19;132275;-35
2023/10/13 14:13:06;;;;;;;46.85;2.75;;;;;;;23.45;54.53;98819.50;7308974;19;129161;-37
2023/10/13 14:15:39;;;;;;;32.88;2.03;;;;;;;23.33;54.91;98795.44;7306924;19;129451;-39
2023/10/13 14:18:06;;;;;;;40.65;2.47;;;;;;;23.44;55.32;98813.41;7310202;19;129318;-39
2023/10/13 14:20:37;;;;;;;59.40;3.10;;;;;;;23.45;56.03;98815.06;7306065;19;129095;-38
2023/10/13 14:23:07;;;;;;;69.70;3.92;;;;;;;23.45;55.50;98809.84;7310310;19;129160;-39
2023/10/13 14:25:37;;;;;;;45.70;2.85;;;;;;;23.46;56.15;98814.06;7307887;19;131028;-39
2023/10/13 14:28:04;;;;;;;30.17;1.90;;;;;;;23.45;56.25;98812.47;7307598;19;128951;-37
2023/10/13 14:30:31;;;;;;;65.07;3.60;;;;;;;23.45;55.55;98807.22;7309536;19;128925;-37
2023/10/13 14:32:58;;;;;;;51.78;3.05;;;;;;;23.32;56.17;98780.69;7309700;19;129266;-36
2023/10/13 14:35:25;;;;;;;29.33;1.73;;;;;;;23.45;56.66;98804.59;7309338;19;130183;-40
2023/10/13 14:37:53;;;;;;;44.20;2.47;;;;;;;23.45;56.08;98809.84;7310883;19;129601;-37
2023/10/13 14:40:21;;;;;;;49.50;3.10;;;;;;;23.46;56.75;98795.72;7310674;19;129066;-38
2023/10/13 14:42:47;;;;;;;70.10;3.75;;;;;;;23.47;56.65;98796.53;7314903;19;129484;-36
2023/10/13 14:45:13;;;;;;;56.83;3.58;;;;;;;23.46;56.27;98793.09;7315126;19;129766;-38
2023/10/13 14:47:43;;;;;;;27.20;1.73;;;;;;;23.46;57.30;98789.63;7316123;19;128812;-37
2023/10/13 14:50:17;;;;;;;56.67;3.40;;;;;;;23.43;56.59;98785.56;7316302;19;129280;-38